sensor_id;sensor_type;location;lat;lon;timestamp;noise_LAeq;noise_LA_min;noise_LA_max;noise_LA01;noise_LA95
63692;Laerm;49838;51.798;10.954;2022-11-15T00:00:11;42.64;36.01;56.84;;
63692;Laerm;49838;51.798;10.954;2022-11-15T00:02:38;42.54;36.69;59.93;;
63692;Laerm;49838;51.798;10.954;2022-11-15T00:05:06;42.18;36.30;55.69;;
63692;Laerm;49838;51.798;10.954;2022-11-15T00:07:33;39.14;32.93;58.55;;
63692;Laerm;49838;51.798;10.954;2022-11-15T00:10:00;38.15;33.12;48.52;;
63692;Laerm;49838;51.798;10.954;2022-11-15T00:12:28;41.25;34.64;59.60;;
63692;Laerm;49838;51.798;10.954;2022-11-15T00:14:57;50.85;33.27;75.45;;
63692;Laerm;49838;51.798;10.954;2022-11-15T00:17:24;51.07;35.00;68.60;;
63692;Laerm;49838;51.798;10.954;2022-11-15T00:19:51;41.86;35.56;54.47;;
63692;Laerm;49838;51.798;10.954;2022-11-15T00:22:19;39.33;32.68;54.35;;
63692;Laerm;49838;51.798;10.954;2022-11-15T00:24:46;39.04;31.71;57.13;;
63692;Laerm;49838;51.798;10.954;2022-11-15T00:27:14;37.06;31.88;53.04;;
63692;Laerm;49838;51.798;10.954;2022-11-15T00:29:41;39.15;34.44;55.19;;
63692;Laerm;49838;51.798;10.954;2022-11-15T00:32:11;38.06;33.20;49.49;;
63692;Laerm;49838;51.798;10.954;2022-11-15T00:34:38;37.40;33.13;50.08;;
63692;Laerm;49838;51.798;10.954;2022-11-15T00:37:05;42.96;35.05;65.60;;
63692;Laerm;49838;51.798;10.954;2022-11-15T00:39:33;39.99;33.89;53.12;;
63692;Laerm;49838;51.798;10.954;2022-11-15T00:42:00;44.28;35.24;57.22;;
63692;Laerm;49838;51.798;10.954;2022-11-15T00:44:27;40.29;33.81;55.25;;
63692;Laerm;49838;51.798;10.954;2022-11-15T00:46:55;41.28;34.25;53.39;;
63692;Laerm;49838;51.798;10.954;2022-11-15T00:49:23;42.59;35.09;55.60;;
63692;Laerm;49838;51.798;10.954;2022-11-15T00:51:51;42.52;35.65;57.72;;
63692;Laerm;49838;51.798;10.954;2022-11-15T00:54:18;39.51;35.90;48.67;;
63692;Laerm;49838;51.798;10.954;2022-11-15T00:56:45;43.99;36.39;59.97;;
63692;Laerm;49838;51.798;10.954;2022-11-15T00:59:13;46.00;36.83;60.03;;
63692;Laerm;49838;51.798;10.954;2022-11-15T01:01:40;44.03;38.27;58.74;;
63692;Laerm;49838;51.798;10.954;2022-11-15T01:04:07;47.97;40.40;60.14;;
63692;Laerm;49838;51.798;10.954;2022-11-15T01:06:36;47.25;40.08;59.99;;
63692;Laerm;49838;51.798;10.954;2022-11-15T01:09:03;52.40;41.09;68.38;;
63692;Laerm;49838;51.798;10.954;2022-11-15T01:11:31;51.61;42.12;67.49;;
63692;Laerm;49838;51.798;10.954;2022-11-15T01:13:58;48.63;39.65;65.68;;
63692;Laerm;49838;51.798;10.954;2022-11-15T01:16:25;50.93;43.45;66.46;;
63692;Laerm;49838;51.798;10.954;2022-11-15T01:18:53;48.70;41.70;63.93;;
63692;Laerm;49838;51.798;10.954;2022-11-15T01:21:20;47.21;40.74;60.27;;
63692;Laerm;49838;51.798;10.954;2022-11-15T01:23:52;47.05;37.87;65.53;;
63692;Laerm;49838;51.798;10.954;2022-11-15T01:26:20;48.14;40.45;64.02;;
63692;Laerm;49838;51.798;10.954;2022-11-15T01:28:47;47.10;39.49;59.51;;
63692;Laerm;49838;51.798;10.954;2022-11-15T01:31:17;47.96;38.14;65.60;;
63692;Laerm;49838;51.798;10.954;2022-11-15T01:33:45;44.26;37.59;55.05;;
63692;Laerm;49838;51.798;10.954;2022-11-15T01:36:15;44.84;33.87;57.44;;
63692;Laerm;49838;51.798;10.954;2022-11-15T01:38:43;40.53;32.97;58.16;;
63692;Laerm;49838;51.798;10.954;2022-11-15T01:41:16;42.24;32.37;57.52;;
63692;Laerm;49838;51.798;10.954;2022-11-15T01:43:46;44.81;33.22;66.89;;
63692;Laerm;49838;51.798;10.954;2022-11-15T01:46:24;40.08;33.78;63.22;;
63692;Laerm;49838;51.798;10.954;2022-11-15T01:48:53;38.96;31.14;54.81;;
63692;Laerm;49838;51.798;10.954;2022-11-15T01:51:26;37.45;32.82;50.05;;
63692;Laerm;49838;51.798;10.954;2022-11-15T01:53:59;41.59;30.63;68.70;;
63692;Laerm;49838;51.798;10.954;2022-11-15T01:56:32;36.31;30.30;57.60;;
63692;Laerm;49838;51.798;10.954;2022-11-15T01:59:02;35.39;29.69;48.91;;
63692;Laerm;49838;51.798;10.954;2022-11-15T02:01:31;35.96;29.38;49.98;;
63692;Laerm;49838;51.798;10.954;2022-11-15T02:04:02;34.92;29.46;51.87;;
63692;Laerm;49838;51.798;10.954;2022-11-15T02:06:32;32.88;29.44;43.49;;
63692;Laerm;49838;51.798;10.954;2022-11-15T02:09:01;33.61;29.87;43.86;;
63692;Laerm;49838;51.798;10.954;2022-11-15T02:11:33;33.18;29.44;44.89;;
63692;Laerm;49838;51.798;10.954;2022-11-15T02:14:01;32.54;29.27;47.38;;
63692;Laerm;49838;51.798;10.954;2022-11-15T02:16:37;36.49;28.39;52.69;;
63692;Laerm;49838;51.798;10.954;2022-11-15T02:19:22;34.59;29.06;46.89;;
63692;Laerm;49838;51.798;10.954;2022-11-15T02:22:04;33.95;28.94;51.71;;
63692;Laerm;49838;51.798;10.954;2022-11-15T02:24:50;31.84;29.43;44.50;;
63692;Laerm;49838;51.798;10.954;2022-11-15T02:27:42;31.79;28.56;41.22;;
63692;Laerm;49838;51.798;10.954;2022-11-15T02:30:20;33.71;29.06;46.27;;
63692;Laerm;49838;51.798;10.954;2022-11-15T02:32:51;31.47;28.71;42.49;;
63692;Laerm;49838;51.798;10.954;2022-11-15T02:35:27;31.62;28.75;37.57;;
63692;Laerm;49838;51.798;10.954;2022-11-15T02:37:58;33.34;29.23;45.21;;
63692;Laerm;49838;51.798;10.954;2022-11-15T02:40:34;32.89;30.09;43.05;;
63692;Laerm;49838;51.798;10.954;2022-11-15T02:43:09;35.78;30.63;49.80;;
63692;Laerm;49838;51.798;10.954;2022-11-15T02:46:01;35.78;31.48;50.66;;
63692;Laerm;49838;51.798;10.954;2022-11-15T02:48:32;36.20;31.43;47.36;;
63692;Laerm;49838;51.798;10.954;2022-11-15T02:51:01;47.41;32.44;62.80;;
63692;Laerm;49838;51.798;10.954;2022-11-15T02:53:29;35.73;31.34;49.39;;
63692;Laerm;49838;51.798;10.954;2022-11-15T02:55:56;34.73;30.83;44.18;;
63692;Laerm;49838;51.798;10.954;2022-11-15T02:58:38;36.57;30.26;46.55;;
63692;Laerm;49838;51.798;10.954;2022-11-15T03:01:19;35.66;31.06;52.78;;
63692;Laerm;49838;51.798;10.954;2022-11-15T03:03:59;54.10;30.61;75.26;;
63692;Laerm;49838;51.798;10.954;2022-11-15T03:06:35;31.89;28.88;42.42;;
63692;Laerm;49838;51.798;10.954;2022-11-15T03:09:10;32.45;29.06;43.76;;
63692;Laerm;49838;51.798;10.954;2022-11-15T03:11:46;32.60;28.89;47.01;;
63692;Laerm;49838;51.798;10.954;2022-11-15T03:14:21;35.91;30.35;51.78;;
63692;Laerm;49838;51.798;10.954;2022-11-15T03:16:59;34.47;30.96;44.83;;
63692;Laerm;49838;51.798;10.954;2022-11-15T03:19:32;34.51;29.97;52.79;;
63692;Laerm;49838;51.798;10.954;2022-11-15T03:22:04;35.04;30.74;50.18;;
63692;Laerm;49838;51.798;10.954;2022-11-15T03:24:36;33.44;29.89;39.14;;
63692;Laerm;49838;51.798;10.954;2022-11-15T03:27:06;35.87;30.67;50.54;;
63692;Laerm;49838;51.798;10.954;2022-11-15T03:29:36;33.65;29.90;47.77;;
63692;Laerm;49838;51.798;10.954;2022-11-15T03:32:11;31.17;28.42;43.89;;
63692;Laerm;49838;51.798;10.954;2022-11-15T03:34:43;33.15;28.84;44.07;;
63692;Laerm;49838;51.798;10.954;2022-11-15T03:37:14;33.21;29.05;45.77;;
63692;Laerm;49838;51.798;10.954;2022-11-15T03:39:43;36.40;30.37;47.55;;
63692;Laerm;49838;51.798;10.954;2022-11-15T03:42:19;36.46;31.57;45.51;;
63692;Laerm;49838;51.798;10.954;2022-11-15T03:44:52;36.19;31.94;46.78;;
63692;Laerm;49838;51.798;10.954;2022-11-15T03:47:26;35.66;31.42;44.57;;
63692;Laerm;49838;51.798;10.954;2022-11-15T03:49:59;50.29;32.23;69.11;;
63692;Laerm;49838;51.798;10.954;2022-11-15T03:52:31;38.18;32.53;53.63;;
63692;Laerm;49838;51.798;10.954;2022-11-15T03:55:01;37.74;31.99;51.86;;
63692;Laerm;49838;51.798;10.954;2022-11-15T03:57:29;52.21;31.94;71.97;;
63692;Laerm;49838;51.798;10.954;2022-11-15T03:59:57;37.78;32.23;52.15;;
63692;Laerm;49838;51.798;10.954;2022-11-15T04:02:25;36.15;31.53;54.35;;
63692;Laerm;49838;51.798;10.954;2022-11-15T04:04:53;38.60;32.43;56.97;;
63692;Laerm;49838;51.798;10.954;2022-11-15T04:07:20;40.22;33.29;54.82;;
63692;Laerm;49838;51.798;10.954;2022-11-15T04:09:47;39.24;33.50;54.25;;
63692;Laerm;49838;51.798;10.954;2022-11-15T04:12:29;40.71;34.98;50.22;;
63692;Laerm;49838;51.798;10.954;2022-11-15T04:15:00;39.36;34.86;48.05;;
63692;Laerm;49838;51.798;10.954;2022-11-15T04:17:37;38.57;33.81;57.37;;
63692;Laerm;49838;51.798;10.954;2022-11-15T04:20:06;44.74;34.33;60.40;;
63692;Laerm;49838;51.798;10.954;2022-11-15T04:22:52;53.59;37.18;67.54;;
63692;Laerm;49838;51.798;10.954;2022-11-15T04:25:37;46.69;36.52;63.70;;
63692;Laerm;49838;51.798;10.954;2022-11-15T04:28:05;41.72;36.65;53.73;;
63692;Laerm;49838;51.798;10.954;2022-11-15T04:30:32;41.47;36.52;57.91;;
63692;Laerm;49838;51.798;10.954;2022-11-15T04:33:01;52.66;37.47;72.86;;
63692;Laerm;49838;51.798;10.954;2022-11-15T04:35:28;41.38;36.80;54.57;;
63692;Laerm;49838;51.798;10.954;2022-11-15T04:37:57;54.65;37.83;67.94;;
63692;Laerm;49838;51.798;10.954;2022-11-15T04:40:23;42.14;37.87;53.98;;
63692;Laerm;49838;51.798;10.954;2022-11-15T04:42:51;42.32;36.87;56.47;;
63692;Laerm;49838;51.798;10.954;2022-11-15T04:45:18;47.88;36.52;62.59;;
63692;Laerm;49838;51.798;10.954;2022-11-15T04:47:46;55.30;37.52;75.19;;
63692;Laerm;49838;51.798;10.954;2022-11-15T04:50:16;49.00;37.06;64.10;;
63692;Laerm;49838;51.798;10.954;2022-11-15T04:52:50;53.24;36.78;67.75;;
63692;Laerm;49838;51.798;10.954;2022-11-15T04:55:17;57.57;36.06;74.11;;
63692;Laerm;49838;51.798;10.954;2022-11-15T04:57:45;59.46;38.91;77.36;;
63692;Laerm;49838;51.798;10.954;2022-11-15T05:00:14;50.48;38.22;68.05;;
63692;Laerm;49838;51.798;10.954;2022-11-15T05:02:41;58.09;37.23;76.05;;
63692;Laerm;49838;51.798;10.954;2022-11-15T05:05:28;41.70;36.96;63.74;;
63692;Laerm;49838;51.798;10.954;2022-11-15T05:07:55;41.84;37.89;54.94;;
63692;Laerm;49838;51.798;10.954;2022-11-15T05:10:22;44.09;36.69;60.47;;
63692;Laerm;49838;51.798;10.954;2022-11-15T05:12:50;52.67;36.10;72.26;;
63692;Laerm;49838;51.798;10.954;2022-11-15T05:15:17;43.93;37.56;61.91;;
63692;Laerm;49838;51.798;10.954;2022-11-15T05:17:44;56.49;36.07;72.68;;
63692;Laerm;49838;51.798;10.954;2022-11-15T05:20:12;52.98;38.04;69.18;;
63692;Laerm;49838;51.798;10.954;2022-11-15T05:22:41;43.96;38.88;55.54;;
63692;Laerm;49838;51.798;10.954;2022-11-15T05:25:08;56.30;39.00;83.67;;
63692;Laerm;49838;51.798;10.954;2022-11-15T05:27:36;58.35;39.14;71.43;;
63692;Laerm;49838;51.798;10.954;2022-11-15T05:30:04;44.60;37.84;56.70;;
63692;Laerm;49838;51.798;10.954;2022-11-15T05:32:31;60.82;37.70;79.59;;
63692;Laerm;49838;51.798;10.954;2022-11-15T05:34:58;55.94;38.53;72.13;;
63692;Laerm;49838;51.798;10.954;2022-11-15T05:37:26;54.28;37.28;67.73;;
63692;Laerm;49838;51.798;10.954;2022-11-15T05:39:55;58.39;37.08;72.99;;
63692;Laerm;49838;51.798;10.954;2022-11-15T05:42:22;52.96;36.54;70.17;;
63692;Laerm;49838;51.798;10.954;2022-11-15T05:44:50;62.54;36.28;78.68;;
63692;Laerm;49838;51.798;10.954;2022-11-15T05:47:20;51.02;37.15;69.40;;
63692;Laerm;49838;51.798;10.954;2022-11-15T05:49:49;56.97;38.58;71.74;;
63692;Laerm;49838;51.798;10.954;2022-11-15T05:52:20;54.67;37.06;69.34;;
63692;Laerm;49838;51.798;10.954;2022-11-15T05:54:49;60.27;39.32;86.51;;
63692;Laerm;49838;51.798;10.954;2022-11-15T05:57:19;57.84;39.29;72.43;;
63692;Laerm;49838;51.798;10.954;2022-11-15T05:59:47;53.95;39.27;71.38;;
63692;Laerm;49838;51.798;10.954;2022-11-15T06:02:14;57.92;38.11;71.95;;
63692;Laerm;49838;51.798;10.954;2022-11-15T06:04:42;61.58;39.94;74.60;;
63692;Laerm;49838;51.798;10.954;2022-11-15T06:07:09;57.74;37.14;71.86;;
63692;Laerm;49838;51.798;10.954;2022-11-15T06:09:36;54.29;37.12;72.29;;
63692;Laerm;49838;51.798;10.954;2022-11-15T06:12:04;57.03;38.64;72.81;;
63692;Laerm;49838;51.798;10.954;2022-11-15T06:14:33;55.53;39.40;69.74;;
63692;Laerm;49838;51.798;10.954;2022-11-15T06:17:00;59.94;39.54;73.11;;
63692;Laerm;49838;51.798;10.954;2022-11-15T06:19:28;58.82;38.59;73.59;;
63692;Laerm;49838;51.798;10.954;2022-11-15T06:21:58;56.79;37.56;70.38;;
63692;Laerm;49838;51.798;10.954;2022-11-15T06:24:29;64.49;42.51;82.40;;
63692;Laerm;49838;51.798;10.954;2022-11-15T06:26:56;59.75;39.89;72.92;;
63692;Laerm;49838;51.798;10.954;2022-11-15T06:29:24;56.38;37.86;70.54;;
63692;Laerm;49838;51.798;10.954;2022-11-15T06:31:53;58.69;38.50;71.87;;
63692;Laerm;49838;51.798;10.954;2022-11-15T06:34:20;63.91;40.01;81.35;;
63692;Laerm;49838;51.798;10.954;2022-11-15T06:36:48;53.12;37.15;68.91;;
63692;Laerm;49838;51.798;10.954;2022-11-15T06:39:15;57.58;38.34;72.54;;
63692;Laerm;49838;51.798;10.954;2022-11-15T06:41:42;63.18;38.62;89.46;;
63692;Laerm;49838;51.798;10.954;2022-11-15T06:44:10;59.22;39.62;78.06;;
63692;Laerm;49838;51.798;10.954;2022-11-15T06:46:37;56.18;39.07;72.49;;
63692;Laerm;49838;51.798;10.954;2022-11-15T06:49:06;59.77;37.82;73.14;;
63692;Laerm;49838;51.798;10.954;2022-11-15T06:51:33;54.68;39.78;72.68;;
63692;Laerm;49838;51.798;10.954;2022-11-15T06:54:01;61.40;40.34;80.33;;
63692;Laerm;49838;51.798;10.954;2022-11-15T06:56:28;59.80;41.17;74.45;;
63692;Laerm;49838;51.798;10.954;2022-11-15T06:58:55;57.31;38.22;70.40;;
63692;Laerm;49838;51.798;10.954;2022-11-15T07:01:23;42.67;37.09;59.47;;
63692;Laerm;49838;51.798;10.954;2022-11-15T07:03:51;56.85;38.33;71.59;;
63692;Laerm;49838;51.798;10.954;2022-11-15T07:06:19;57.21;38.66;72.30;;
63692;Laerm;49838;51.798;10.954;2022-11-15T07:08:47;60.20;39.85;75.77;;
63692;Laerm;49838;51.798;10.954;2022-11-15T07:11:14;57.97;39.86;77.30;;
63692;Laerm;49838;51.798;10.954;2022-11-15T07:13:41;51.67;38.80;67.64;;
63692;Laerm;49838;51.798;10.954;2022-11-15T07:16:10;54.44;38.23;73.07;;
63692;Laerm;49838;51.798;10.954;2022-11-15T07:18:38;51.72;38.76;69.54;;
63692;Laerm;49838;51.798;10.954;2022-11-15T07:21:08;59.91;38.87;77.00;;
63692;Laerm;49838;51.798;10.954;2022-11-15T07:23:39;53.17;37.80;70.98;;
63692;Laerm;49838;51.798;10.954;2022-11-15T07:26:08;53.55;36.05;69.04;;
63692;Laerm;49838;51.798;10.954;2022-11-15T07:28:36;57.34;37.72;73.12;;
63692;Laerm;49838;51.798;10.954;2022-11-15T07:31:03;56.71;36.94;71.96;;
63692;Laerm;49838;51.798;10.954;2022-11-15T07:33:31;56.63;35.98;73.44;;
63692;Laerm;49838;51.798;10.954;2022-11-15T07:35:59;54.50;37.13;71.32;;
63692;Laerm;49838;51.798;10.954;2022-11-15T07:38:28;57.16;37.33;73.32;;
63692;Laerm;49838;51.798;10.954;2022-11-15T07:40:58;53.43;36.08;72.19;;
63692;Laerm;49838;51.798;10.954;2022-11-15T07:43:25;56.05;37.17;73.57;;
63692;Laerm;49838;51.798;10.954;2022-11-15T07:45:53;50.44;37.63;67.23;;
63692;Laerm;49838;51.798;10.954;2022-11-15T07:48:21;55.29;37.86;68.61;;
63692;Laerm;49838;51.798;10.954;2022-11-15T07:50:48;52.06;38.74;67.36;;
63692;Laerm;49838;51.798;10.954;2022-11-15T07:53:16;56.62;37.86;74.08;;
63692;Laerm;49838;51.798;10.954;2022-11-15T07:55:43;59.23;38.56;77.95;;
63692;Laerm;49838;51.798;10.954;2022-11-15T07:58:12;55.06;38.25;70.12;;
63692;Laerm;49838;51.798;10.954;2022-11-15T08:00:39;57.96;36.49;77.90;;
63692;Laerm;49838;51.798;10.954;2022-11-15T08:03:09;56.92;37.27;75.78;;
63692;Laerm;49838;51.798;10.954;2022-11-15T08:05:38;63.45;36.99;87.65;;
63692;Laerm;49838;51.798;10.954;2022-11-15T08:08:06;55.23;37.16;70.22;;
63692;Laerm;49838;51.798;10.954;2022-11-15T08:10:34;55.50;36.60;70.55;;
63692;Laerm;49838;51.798;10.954;2022-11-15T08:13:04;62.03;36.97;80.76;;
63692;Laerm;49838;51.798;10.954;2022-11-15T08:15:33;55.07;37.15;71.58;;
63692;Laerm;49838;51.798;10.954;2022-11-15T08:18:04;54.09;36.52;70.69;;
63692;Laerm;49838;51.798;10.954;2022-11-15T08:20:32;58.52;36.55;78.16;;
63692;Laerm;49838;51.798;10.954;2022-11-15T08:23:02;58.06;37.81;72.03;;
63692;Laerm;49838;51.798;10.954;2022-11-15T08:25:31;50.82;36.97;68.38;;
63692;Laerm;49838;51.798;10.954;2022-11-15T08:28:00;55.31;36.56;73.61;;
63692;Laerm;49838;51.798;10.954;2022-11-15T08:30:28;57.05;39.99;72.46;;
63692;Laerm;49838;51.798;10.954;2022-11-15T08:32:58;54.91;38.63;67.79;;
63692;Laerm;49838;51.798;10.954;2022-11-15T08:35:25;58.95;37.53;84.32;;
63692;Laerm;49838;51.798;10.954;2022-11-15T08:37:53;57.59;37.82;73.88;;
63692;Laerm;49838;51.798;10.954;2022-11-15T08:40:20;58.20;40.97;70.48;;
63692;Laerm;49838;51.798;10.954;2022-11-15T08:42:48;57.67;39.57;72.39;;
63692;Laerm;49838;51.798;10.954;2022-11-15T08:45:16;65.20;39.08;81.48;;
63692;Laerm;49838;51.798;10.954;2022-11-15T08:47:43;54.10;38.38;70.05;;
63692;Laerm;49838;51.798;10.954;2022-11-15T08:50:12;58.22;40.42;71.65;;
63692;Laerm;49838;51.798;10.954;2022-11-15T08:52:39;58.25;39.64;71.59;;
63692;Laerm;49838;51.798;10.954;2022-11-15T08:55:08;60.84;40.16;76.41;;
63692;Laerm;49838;51.798;10.954;2022-11-15T08:57:35;59.01;37.38;73.71;;
63692;Laerm;49838;51.798;10.954;2022-11-15T09:00:03;57.49;38.78;72.32;;
63692;Laerm;49838;51.798;10.954;2022-11-15T09:02:31;56.37;39.39;69.24;;
63692;Laerm;49838;51.798;10.954;2022-11-15T09:04:58;53.92;38.59;67.97;;
63692;Laerm;49838;51.798;10.954;2022-11-15T09:07:27;50.84;38.40;66.63;;
63692;Laerm;49838;51.798;10.954;2022-11-15T09:09:55;56.50;40.21;71.68;;
63692;Laerm;49838;51.798;10.954;2022-11-15T09:12:23;58.45;38.35;73.33;;
63692;Laerm;49838;51.798;10.954;2022-11-15T09:14:50;59.80;36.87;72.68;;
63692;Laerm;49838;51.798;10.954;2022-11-15T09:17:18;55.92;35.64;70.76;;
63692;Laerm;49838;51.798;10.954;2022-11-15T09:19:45;57.88;37.55;72.64;;
63692;Laerm;49838;51.798;10.954;2022-11-15T09:22:13;52.46;36.35;71.78;;
63692;Laerm;49838;51.798;10.954;2022-11-15T09:24:41;55.46;36.12;70.65;;
63692;Laerm;49838;51.798;10.954;2022-11-15T09:27:09;55.01;36.67;68.85;;
63692;Laerm;49838;51.798;10.954;2022-11-15T09:29:36;60.08;38.74;73.94;;
63692;Laerm;49838;51.798;10.954;2022-11-15T09:32:04;51.19;37.86;67.40;;
63692;Laerm;49838;51.798;10.954;2022-11-15T09:34:31;59.20;37.71;76.00;;
63692;Laerm;49838;51.798;10.954;2022-11-15T09:36:58;51.92;37.55;69.79;;
63692;Laerm;49838;51.798;10.954;2022-11-15T09:39:26;53.38;36.74;71.98;;
63692;Laerm;49838;51.798;10.954;2022-11-15T09:42:07;56.66;37.95;70.69;;
63692;Laerm;49838;51.798;10.954;2022-11-15T09:44:42;56.78;37.48;74.09;;
63692;Laerm;49838;51.798;10.954;2022-11-15T09:50:32;59.24;35.31;76.56;;
63692;Laerm;49838;51.798;10.954;2022-11-15T09:53:01;64.52;41.29;83.26;;
63692;Laerm;49838;51.798;10.954;2022-11-15T09:55:34;47.27;36.68;71.67;;
63692;Laerm;49838;51.798;10.954;2022-11-15T09:58:12;52.57;36.87;70.15;;
63692;Laerm;49838;51.798;10.954;2022-11-15T10:00:47;56.48;36.44;73.74;;
63692;Laerm;49838;51.798;10.954;2022-11-15T10:03:23;53.89;35.06;68.64;;
63692;Laerm;49838;51.798;10.954;2022-11-15T10:05:54;58.18;35.77;73.63;;
63692;Laerm;49838;51.798;10.954;2022-11-15T10:08:33;61.37;40.30;77.73;;
63692;Laerm;49838;51.798;10.954;2022-11-15T10:11:06;54.54;37.20;69.04;;
63692;Laerm;49838;51.798;10.954;2022-11-15T10:13:39;57.83;37.96;70.33;;
63692;Laerm;49838;51.798;10.954;2022-11-15T10:16:16;60.77;36.46;76.01;;
63692;Laerm;49838;51.798;10.954;2022-11-15T10:18:57;60.20;39.10;76.33;;
63692;Laerm;49838;51.798;10.954;2022-11-15T10:21:32;57.27;38.23;75.49;;
63692;Laerm;49838;51.798;10.954;2022-11-15T10:24:10;58.72;36.34;73.48;;
63692;Laerm;49838;51.798;10.954;2022-11-15T10:26:38;46.19;37.04;63.55;;
63692;Laerm;49838;51.798;10.954;2022-11-15T10:29:09;56.60;37.43;70.03;;
63692;Laerm;49838;51.798;10.954;2022-11-15T10:31:39;58.84;40.23;72.39;;
63692;Laerm;49838;51.798;10.954;2022-11-15T10:34:12;56.23;36.12;73.51;;
63692;Laerm;49838;51.798;10.954;2022-11-15T10:36:44;61.51;38.97;76.39;;
63692;Laerm;49838;51.798;10.954;2022-11-15T10:39:12;52.64;36.34;69.72;;
63692;Laerm;49838;51.798;10.954;2022-11-15T10:41:41;59.82;38.48;73.40;;
63692;Laerm;49838;51.798;10.954;2022-11-15T10:44:23;57.63;38.13;70.16;;
63692;Laerm;49838;51.798;10.954;2022-11-15T10:47:06;60.26;38.59;77.30;;
63692;Laerm;49838;51.798;10.954;2022-11-15T10:49:54;63.77;36.13;84.05;;
63692;Laerm;49838;51.798;10.954;2022-11-15T10:52:22;58.55;39.30;77.26;;
63692;Laerm;49838;51.798;10.954;2022-11-15T10:54:53;57.50;37.98;73.31;;
63692;Laerm;49838;51.798;10.954;2022-11-15T10:57:23;53.79;37.95;70.14;;
63692;Laerm;49838;51.798;10.954;2022-11-15T10:59:54;58.12;36.11;74.21;;
63692;Laerm;49838;51.798;10.954;2022-11-15T11:02:29;59.13;36.58;78.51;;
63692;Laerm;49838;51.798;10.954;2022-11-15T11:04:58;54.92;36.53;72.95;;
63692;Laerm;49838;51.798;10.954;2022-11-15T11:07:27;58.47;35.20;73.25;;
63692;Laerm;49838;51.798;10.954;2022-11-15T11:10:00;44.68;34.78;63.22;;
63692;Laerm;49838;51.798;10.954;2022-11-15T11:12:29;58.70;36.90;71.79;;
63692;Laerm;49838;51.798;10.954;2022-11-15T11:15:01;57.00;35.14;72.79;;
63692;Laerm;49838;51.798;10.954;2022-11-15T11:17:39;59.50;35.75;76.05;;
63692;Laerm;49838;51.798;10.954;2022-11-15T11:20:18;56.31;34.96;72.17;;
63692;Laerm;49838;51.798;10.954;2022-11-15T11:22:58;59.09;34.68;78.42;;
63692;Laerm;49838;51.798;10.954;2022-11-15T11:25:34;50.68;34.17;67.75;;
63692;Laerm;49838;51.798;10.954;2022-11-15T11:28:12;55.83;34.96;71.92;;
63692;Laerm;49838;51.798;10.954;2022-11-15T11:30:50;58.01;38.53;72.47;;
63692;Laerm;49838;51.798;10.954;2022-11-15T11:33:22;58.52;37.00;74.85;;
63692;Laerm;49838;51.798;10.954;2022-11-15T11:36:02;53.61;35.59;70.77;;
63692;Laerm;49838;51.798;10.954;2022-11-15T11:39:03;39.57;35.03;52.49;;
63692;Laerm;49838;51.798;10.954;2022-11-15T11:41:51;59.18;34.48;72.29;;
63692;Laerm;49838;51.798;10.954;2022-11-15T11:44:28;59.47;35.14;72.98;;
63692;Laerm;49838;51.798;10.954;2022-11-15T11:47:00;53.87;35.06;67.35;;
63692;Laerm;49838;51.798;10.954;2022-11-15T11:49:36;56.95;34.99;73.12;;
63692;Laerm;49838;51.798;10.954;2022-11-15T11:52:10;54.55;34.32;71.09;;
63692;Laerm;49838;51.798;10.954;2022-11-15T11:54:46;58.06;34.45;69.90;;
63692;Laerm;49838;51.798;10.954;2022-11-15T11:57:24;57.56;36.91;76.92;;
63692;Laerm;49838;51.798;10.954;2022-11-15T11:59:58;60.07;36.27;75.91;;
63692;Laerm;49838;51.798;10.954;2022-11-15T12:02:33;59.44;36.55;73.72;;
63692;Laerm;49838;51.798;10.954;2022-11-15T12:05:08;59.23;36.91;82.25;;
63692;Laerm;49838;51.798;10.954;2022-11-15T12:07:39;54.52;36.36;71.77;;
63692;Laerm;49838;51.798;10.954;2022-11-15T12:10:16;51.46;34.23;67.26;;
63692;Laerm;49838;51.798;10.954;2022-11-15T12:12:53;51.27;34.82;65.36;;
63692;Laerm;49838;51.798;10.954;2022-11-15T12:15:25;55.18;39.65;70.81;;
63692;Laerm;49838;51.798;10.954;2022-11-15T12:17:56;57.82;38.45;73.88;;
63692;Laerm;49838;51.798;10.954;2022-11-15T12:20:30;57.34;38.23;77.88;;
63692;Laerm;49838;51.798;10.954;2022-11-15T12:23:03;58.92;37.97;71.80;;
63692;Laerm;49838;51.798;10.954;2022-11-15T12:25:35;56.64;36.36;72.04;;
63692;Laerm;49838;51.798;10.954;2022-11-15T12:28:16;56.16;36.58;72.87;;
63692;Laerm;49838;51.798;10.954;2022-11-15T12:30:48;63.37;34.57;81.67;;
63692;Laerm;49838;51.798;10.954;2022-11-15T12:33:31;60.75;35.82;78.64;;
63692;Laerm;49838;51.798;10.954;2022-11-15T12:36:01;55.89;36.87;72.52;;
63692;Laerm;49838;51.798;10.954;2022-11-15T12:38:55;58.70;37.58;77.59;;
63692;Laerm;49838;51.798;10.954;2022-11-15T12:41:24;56.57;36.04;72.63;;
63692;Laerm;49838;51.798;10.954;2022-11-15T12:43:53;60.62;37.88;78.63;;
63692;Laerm;49838;51.798;10.954;2022-11-15T12:46:23;55.20;38.29;73.22;;
63692;Laerm;49838;51.798;10.954;2022-11-15T12:49:02;57.47;36.52;78.38;;
63692;Laerm;49838;51.798;10.954;2022-11-15T12:52:05;59.99;38.18;78.35;;
63692;Laerm;49838;51.798;10.954;2022-11-15T12:54:59;62.92;35.18;80.43;;
63692;Laerm;49838;51.798;10.954;2022-11-15T12:57:42;60.57;34.61;80.72;;
63692;Laerm;49838;51.798;10.954;2022-11-15T13:03:21;53.09;36.60;69.07;;
63692;Laerm;49838;51.798;10.954;2022-11-15T13:06:02;54.77;35.53;71.34;;
63692;Laerm;49838;51.798;10.954;2022-11-15T13:08:41;51.01;34.80;67.04;;
63692;Laerm;49838;51.798;10.954;2022-11-15T13:11:45;55.55;34.63;71.30;;
63692;Laerm;49838;51.798;10.954;2022-11-15T13:14:39;56.83;33.37;72.97;;
63692;Laerm;49838;51.798;10.954;2022-11-15T13:17:19;58.55;34.43;80.00;;
63692;Laerm;49838;51.798;10.954;2022-11-15T13:19:53;55.11;35.20;70.66;;
63692;Laerm;49838;51.798;10.954;2022-11-15T13:22:26;58.01;34.90;69.25;;
63692;Laerm;49838;51.798;10.954;2022-11-15T13:25:21;56.70;36.50;75.13;;
63692;Laerm;49838;51.798;10.954;2022-11-15T13:27:52;57.40;37.49;71.68;;
63692;Laerm;49838;51.798;10.954;2022-11-15T13:30:22;56.88;35.80;72.14;;
63692;Laerm;49838;51.798;10.954;2022-11-15T13:32:51;60.91;34.98;77.37;;
63692;Laerm;49838;51.798;10.954;2022-11-15T13:35:21;58.77;36.06;76.14;;
63692;Laerm;49838;51.798;10.954;2022-11-15T13:37:52;49.74;33.30;64.42;;
63692;Laerm;49838;51.798;10.954;2022-11-15T13:40:25;49.89;36.35;65.71;;
63692;Laerm;49838;51.798;10.954;2022-11-15T13:42:55;57.02;35.80;71.06;;
63692;Laerm;49838;51.798;10.954;2022-11-15T13:45:23;59.73;34.20;71.87;;
63692;Laerm;49838;51.798;10.954;2022-11-15T13:47:57;60.08;38.58;72.23;;
63692;Laerm;49838;51.798;10.954;2022-11-15T13:50:27;59.26;37.85;80.35;;
63692;Laerm;49838;51.798;10.954;2022-11-15T13:52:59;52.29;35.76;68.00;;
63692;Laerm;49838;51.798;10.954;2022-11-15T13:55:29;56.30;35.68;74.79;;
63692;Laerm;49838;51.798;10.954;2022-11-15T13:58:00;56.09;35.19;73.13;;
63692;Laerm;49838;51.798;10.954;2022-11-15T14:00:35;60.31;35.17;72.04;;